Time;durP1;ratioP1;P1;durP2;ratioP2;P2;SDS_P1;SDS_P2;PMS_P1;PMS_P2;Temp;Humidity;BMP_temperature;BMP_pressure;BME280_temperature;BME280_humidity;BME280_pressure;Samples;Min_cycle;Max_cycle;Signal;HPM_P1;HPM_P2
2022/09/11 00:00:09;;;;;;;;;;;;;;;25.74;47.61;100377.02;104437;1309;61316;-83
2022/09/11 00:02:35;;;;;;;;;;;;;;;25.74;47.67;100379.01;104309;1313;61391;-85
2022/09/11 00:05:00;;;;;;;;;;;;;;;25.73;47.66;100379.75;104223;1314;61311;-83
2022/09/11 00:07:26;;;;;;;;;;;;;;;25.73;47.64;100373.44;104112;1313;61954;-81
2022/09/11 00:09:51;;;;;;;;;;;;;;;25.73;47.80;100370.41;103888;1314;61462;-81
2022/09/11 00:12:17;;;;;;;;;;;;;;;25.74;47.48;100364.58;103929;1314;61364;-81
2022/09/11 00:14:42;;;;;;;;;;;;;;;25.74;47.93;100360.77;103935;1314;61368;-82
2022/09/11 00:17:08;;;;;;;;;;;;;;;25.74;47.76;100354.98;103926;1314;61724;-82
2022/09/11 00:19:35;;;;;;;;;;;;;;;25.74;47.75;100356.23;103929;1314;61468;-83
2022/09/11 00:22:00;;;;;;;;;;;;;;;25.75;47.84;100354.05;103919;1314;61327;-82
2022/09/11 00:24:26;;;;;;;;;;;;;;;25.75;47.81;100351.05;104091;1314;61439;-83
2022/09/11 00:26:52;;;;;;;;;;;;;;;25.75;47.82;100352.70;104235;1314;61284;-83
2022/09/11 00:29:18;;;;;;;;;;;;;;;25.75;47.95;100351.59;104134;1314;61555;-83
2022/09/11 00:31:43;;;;;;;;;;;;;;;25.76;47.97;100346.54;104234;1314;61264;-82
2022/09/11 00:34:10;;;;;;;;;;;;;;;25.76;47.88;100342.04;104308;1313;61582;-83
2022/09/11 00:36:40;;;;;;;;;;;;;;;25.75;48.01;100341.90;104420;1311;61213;-83
2022/09/11 00:39:05;;;;;;;;;;;;;;;25.76;47.95;100346.73;104356;1313;61182;-84
2022/09/11 00:41:33;;;;;;;;;;;;;;;25.75;47.79;100349.30;104318;1313;61578;-83
2022/09/11 00:44:06;;;;;;;;;;;;;;;25.75;48.10;100351.69;104423;1313;75664;-83
2022/09/11 00:46:39;;;;;;;;;;;;;;;25.75;48.07;100355.23;104390;1313;61252;-84
2022/09/11 00:49:11;;;;;;;;;;;;;;;25.74;47.88;100352.26;104331;1313;61344;-84
2022/09/11 00:51:37;;;;;;;;;;;;;;;25.74;48.04;100352.25;104316;1313;72841;-83
2022/09/11 00:54:02;;;;;;;;;;;;;;;25.74;48.03;100338.94;104267;1313;61299;-83
2022/09/11 00:56:30;;;;;;;;;;;;;;;25.74;48.06;100338.77;104377;1311;61452;-83
2022/09/11 00:58:55;;;;;;;;;;;;;;;25.74;48.05;100338.23;104346;1313;61150;-83
2022/09/11 01:01:21;;;;;;;;;;;;;;;25.73;47.91;100340.66;104386;1313;61315;-83
2022/09/11 01:03:46;;;;;;;;;;;;;;;25.74;47.96;100332.85;104309;1314;61314;-83
2022/09/11 01:06:13;;;;;;;;;;;;;;;25.74;47.94;100326.54;104427;1313;61302;-83
2022/09/11 01:08:39;;;;;;;;;;;;;;;25.74;48.14;100333.77;104429;1310;61175;-84
2022/09/11 01:11:24;;;;;;;;;;;;;;;25.73;47.93;100332.18;104511;1309;61400;-84
2022/09/11 01:13:56;;;;;;;;;;;;;;;25.73;47.99;100332.58;104423;1309;72925;-83
2022/09/11 01:16:28;;;;;;;;;;;;;;;25.73;48.06;100330.55;104427;1310;74690;-83
2022/09/11 01:19:13;;;;;;;;;;;;;;;25.73;48.04;100333.83;104405;1310;61980;-83
2022/09/11 01:21:57;;;;;;;;;;;;;;;25.73;48.02;100334.00;104449;1309;61505;-83
2022/09/11 01:24:35;;;;;;;;;;;;;;;25.73;48.09;100336.36;104427;1309;72829;-83
2022/09/11 01:27:10;;;;;;;;;;;;;;;25.73;48.01;100337.08;104502;1308;74691;-83
2022/09/11 01:29:39;;;;;;;;;;;;;;;25.73;48.01;100342.84;104425;1311;61291;-82
2022/09/11 01:32:08;;;;;;;;;;;;;;;25.73;48.14;100342.70;104465;1309;61135;-82
2022/09/11 01:34:49;;;;;;;;;;;;;;;25.72;48.06;100338.58;104421;1311;72517;-83
2022/09/11 01:37:16;;;;;;;;;;;;;;;25.73;48.19;100340.17;104441;1309;74737;-82
2022/09/11 01:39:45;;;;;;;;;;;;;;;25.73;48.12;100340.55;104510;1309;61324;-84
2022/09/11 01:42:13;;;;;;;;;;;;;;;25.72;48.20;100337.13;104477;1309;61314;-83
2022/09/11 01:44:43;;;;;;;;;;;;;;;25.72;48.06;100334.06;104416;1309;72653;-84
2022/09/11 01:47:09;;;;;;;;;;;;;;;25.72;48.10;100330.30;104450;1309;74364;-84
2022/09/11 01:49:44;;;;;;;;;;;;;;;25.72;48.16;100329.59;104426;1309;61295;-84
2022/09/11 01:52:11;;;;;;;;;;;;;;;25.72;48.09;100335.52;104473;1309;61305;-84
2022/09/11 01:54:45;;;;;;;;;;;;;;;25.72;48.21;100329.39;104512;1309;72691;-82
2022/09/11 01:57:14;;;;;;;;;;;;;;;25.72;48.20;100325.27;104419;1310;75773;-83
2022/09/11 01:59:42;;;;;;;;;;;;;;;25.72;48.44;100326.91;104428;1310;61190;-83
2022/09/11 02:02:08;;;;;;;;;;;;;;;25.72;48.20;100324.73;104518;1309;61400;-81
2022/09/11 02:04:36;;;;;;;;;;;;;;;25.72;48.29;100324.58;104443;1309;61296;-84
2022/09/11 02:07:20;;;;;;;;;;;;;;;25.72;48.24;100321.51;104434;1311;75772;-83
2022/09/11 02:09:46;;;;;;;;;;;;;;;25.71;48.25;100322.45;104405;1309;61370;-80
2022/09/11 02:12:12;;;;;;;;;;;;;;;25.72;48.39;100322.95;104456;1312;61266;-82
2022/09/11 02:14:39;;;;;;;;;;;;;;;25.72;48.35;100319.38;104314;1310;61279;-84
2022/09/11 02:17:25;;;;;;;;;;;;;;;25.71;48.42;100322.29;104503;1309;73642;-82
2022/09/11 02:19:54;;;;;;;;;;;;;;;25.71;48.45;100321.38;104447;1309;61405;-83
2022/09/11 02:22:19;;;;;;;;;;;;;;;25.71;48.52;100324.08;104403;1309;61499;-83
2022/09/11 02:24:45;;;;;;;;;;;;;;;25.71;48.28;100320.15;104417;1309;61396;-84
2022/09/11 02:27:11;;;;;;;;;;;;;;;25.71;48.45;100312.92;104385;1310;61289;-85
2022/09/11 02:29:38;;;;;;;;;;;;;;;25.71;48.42;100315.84;104436;1308;61412;-83
2022/09/11 02:32:03;;;;;;;;;;;;;;;25.71;48.41;100316.54;104442;1309;61357;-84
2022/09/11 02:34:32;;;;;;;;;;;;;;;25.71;48.34;100321.23;104379;1310;61305;-84
2022/09/11 02:37:17;;;;;;;;;;;;;;;25.71;48.49;100321.40;104520;1308;61262;-84
2022/09/11 02:40:01;;;;;;;;;;;;;;;25.71;48.57;100321.80;104513;1309;61156;-84
2022/09/11 02:42:45;;;;;;;;;;;;;;;25.70;48.37;100319.33;104543;1308;61277;-85
2022/09/11 02:45:15;;;;;;;;;;;;;;;25.70;48.59;100317.20;104455;1309;72973;-84
2022/09/11 02:47:48;;;;;;;;;;;;;;;25.70;48.35;100320.61;104432;1310;75655;-84
2022/09/11 02:50:32;;;;;;;;;;;;;;;25.70;48.41;100325.65;104455;1309;61200;-87
2022/09/11 02:53:24;;;;;;;;;;;;;;;25.70;48.44;100328.14;104500;1309;61170;-84
2022/09/11 02:56:02;;;;;;;;;;;;;;;25.70;48.45;100328.69;104416;1309;72721;-82
2022/09/11 02:58:38;;;;;;;;;;;;;;;25.70;48.54;100326.39;104405;1309;74634;-83
2022/09/11 03:01:04;;;;;;;;;;;;;;;25.70;48.61;100328.18;104486;1309;61390;-83
2022/09/11 03:03:37;;;;;;;;;;;;;;;25.70;48.47;100326.92;104479;1311;61433;-84
2022/09/11 03:06:03;;;;;;;;;;;;;;;25.70;48.50;100324.27;104352;1310;72584;-84
2022/09/11 03:08:30;;;;;;;;;;;;;;;25.70;48.51;100328.39;104504;1308;61328;-83
2022/09/11 03:10:56;;;;;;;;;;;;;;;25.69;48.48;100323.93;104400;1310;61201;-84
2022/09/11 03:13:21;;;;;;;;;;;;;;;25.70;48.58;100327.80;104422;1309;61386;-84
2022/09/11 03:15:48;;;;;;;;;;;;;;;25.70;48.52;100326.25;104398;1311;61910;-84
2022/09/11 03:18:14;;;;;;;;;;;;;;;25.69;48.64;100327.19;104420;1309;61411;-83
2022/09/11 03:20:46;;;;;;;;;;;;;;;25.69;48.52;100333.13;104462;1309;61296;-85
2022/09/11 03:23:11;;;;;;;;;;;;;;;25.69;48.50;100331.52;104467;1310;61180;-82
2022/09/11 03:25:38;;;;;;;;;;;;;;;25.69;48.48;100331.89;104510;1308;61273;-82
2022/09/11 03:28:04;;;;;;;;;;;;;;;25.69;48.50;100329.95;104441;1309;61224;-87
2022/09/11 03:30:29;;;;;;;;;;;;;;;25.68;48.52;100333.02;104420;1308;61203;-83
2022/09/11 03:32:55;;;;;;;;;;;;;;;25.69;48.52;100333.73;104408;1310;61336;-83
2022/09/11 03:35:20;;;;;;;;;;;;;;;25.68;48.49;100332.88;104398;1309;61273;-84
2022/09/11 03:37:46;;;;;;;;;;;;;;;25.68;48.55;100339.73;104432;1310;61304;-84
2022/09/11 03:40:12;;;;;;;;;;;;;;;25.67;48.57;100340.32;104400;1308;75968;-82
2022/09/11 03:42:43;;;;;;;;;;;;;;;25.67;48.62;100344.84;104379;1311;61265;-83
2022/09/11 03:45:09;;;;;;;;;;;;;;;25.67;48.61;100344.33;104488;1310;61157;-80
2022/09/11 03:47:36;;;;;;;;;;;;;;;25.67;48.55;100349.21;104424;1309;61349;-83
2022/09/11 03:50:01;;;;;;;;;;;;;;;25.67;48.65;100355.16;104384;1310;61306;-84
2022/09/11 03:52:29;;;;;;;;;;;;;;;25.67;48.60;100352.98;104403;1308;61330;-83
2022/09/11 03:54:55;;;;;;;;;;;;;;;25.67;48.56;100355.55;104498;1309;61277;-83
2022/09/11 03:57:20;;;;;;;;;;;;;;;25.67;48.51;100353.20;104361;1310;61337;-83
2022/09/11 03:59:46;;;;;;;;;;;;;;;25.67;48.66;100351.42;104507;1309;61329;-83
2022/09/11 04:02:11;;;;;;;;;;;;;;;25.66;48.63;100351.98;104470;1309;61319;-82
2022/09/11 04:04:38;;;;;;;;;;;;;;;25.66;48.55;100351.65;104494;1310;61296;-84
2022/09/11 04:07:03;;;;;;;;;;;;;;;25.66;48.74;100354.73;104374;1312;61164;-82
2022/09/11 04:09:30;;;;;;;;;;;;;;;25.66;48.75;100361.19;104398;1311;61754;-83
2022/09/11 04:11:56;;;;;;;;;;;;;;;25.66;48.69;100360.61;104388;1311;61258;-82
2022/09/11 04:14:21;;;;;;;;;;;;;;;25.66;48.54;100364.65;104457;1311;61301;-82
2022/09/11 04:16:47;;;;;;;;;;;;;;;25.66;48.50;100365.00;104422;1310;61487;-83
2022/09/11 04:19:13;;;;;;;;;;;;;;;25.66;48.53;100367.73;104405;1310;61329;-83
2022/09/11 04:21:39;;;;;;;;;;;;;;;25.66;48.66;100372.77;104414;1309;61266;-83
2022/09/11 04:24:04;;;;;;;;;;;;;;;25.66;48.70;100377.98;104428;1312;61325;-84
2022/09/11 04:26:30;;;;;;;;;;;;;;;25.66;48.68;100378.31;104391;1310;61397;-84
2022/09/11 04:28:57;;;;;;;;;;;;;;;25.66;48.51;100382.60;104420;1310;61163;-83
2022/09/11 04:31:22;;;;;;;;;;;;;;;25.66;48.67;100380.31;104391;1310;61349;-81
2022/09/11 04:33:48;;;;;;;;;;;;;;;25.66;48.60;100379.59;104416;1311;61475;-83
2022/09/11 04:36:16;;;;;;;;;;;;;;;25.66;48.60;100378.11;104516;1308;61315;-83
2022/09/11 04:38:42;;;;;;;;;;;;;;;25.66;48.56;100379.23;104516;1309;61386;-83
2022/09/11 04:41:08;;;;;;;;;;;;;;;25.66;48.62;100376.14;104405;1311;61338;-82
2022/09/11 04:43:34;;;;;;;;;;;;;;;25.66;48.60;100379.77;104345;1310;61288;-83
2022/09/11 04:46:03;;;;;;;;;;;;;;;25.66;48.67;100388.59;104400;1310;61276;-82
2022/09/11 04:48:29;;;;;;;;;;;;;;;25.66;48.58;100388.72;104495;1309;61237;-83
2022/09/11 04:51:20;;;;;;;;;;;;;;;25.67;48.84;100391.06;104379;1311;61320;-83
2022/09/11 04:53:46;;;;;;;;;;;;;;;25.67;48.69;100390.89;104421;1309;75696;-83
2022/09/11 04:56:12;;;;;;;;;;;;;;;25.67;48.62;100396.98;104405;1310;61293;-83
2022/09/11 04:58:38;;;;;;;;;;;;;;;25.67;48.73;100396.77;104439;1310;61271;-84
2022/09/11 05:01:08;;;;;;;;;;;;;;;25.67;48.61;100391.38;104431;1311;61299;-84
2022/09/11 05:03:33;;;;;;;;;;;;;;;25.67;48.61;100388.11;104397;1310;75201;-80
2022/09/11 05:06:03;;;;;;;;;;;;;;;25.67;48.52;100384.90;104421;1309;61298;-81
2022/09/11 05:08:30;;;;;;;;;;;;;;;25.67;48.51;100385.13;104381;1311;61365;-82
2022/09/11 05:10:56;;;;;;;;;;;;;;;25.67;48.62;100387.08;104371;1311;61394;-83
2022/09/11 05:13:23;;;;;;;;;;;;;;;25.67;48.55;100384.74;104370;1311;74690;-83
2022/09/11 05:15:48;;;;;;;;;;;;;;;25.67;48.59;100390.46;104421;1311;61248;-81
2022/09/11 05:18:14;;;;;;;;;;;;;;;25.67;48.50;100391.73;104442;1311;61384;-82
2022/09/11 05:20:40;;;;;;;;;;;;;;;25.67;48.60;100396.58;104384;1311;61293;-83
2022/09/11 05:23:06;;;;;;;;;;;;;;;25.67;48.56;100399.67;104364;1311;61251;-82
2022/09/11 05:25:32;;;;;;;;;;;;;;;25.67;48.58;100398.02;104396;1311;61326;-83
2022/09/11 05:27:57;;;;;;;;;;;;;;;25.67;48.51;100397.15;104404;1313;61355;-81
2022/09/11 05:30:23;;;;;;;;;;;;;;;25.67;48.50;100396.77;104445;1311;61518;-83
2022/09/11 05:32:54;;;;;;;;;;;;;;;25.67;48.45;100401.10;104388;1311;61287;-83
2022/09/11 05:35:23;;;;;;;;;;;;;;;25.67;48.36;100404.85;104346;1311;75646;-83
2022/09/11 05:37:48;;;;;;;;;;;;;;;25.67;48.57;100406.30;104446;1311;61156;-82
2022/09/11 05:40:14;;;;;;;;;;;;;;;25.68;48.63;100406.60;104353;1311;61296;-83
2022/09/11 05:42:42;;;;;;;;;;;;;;;25.68;48.46;100403.88;104414;1313;61266;-83
2022/09/11 05:45:07;;;;;;;;;;;;;;;25.68;48.46;100400.48;104437;1311;61139;-82
2022/09/11 05:47:33;;;;;;;;;;;;;;;25.69;48.60;100403.48;104376;1311;61285;-85
2022/09/11 05:50:00;;;;;;;;;;;;;;;25.69;48.61;100402.55;104384;1311;61248;-83
2022/09/11 05:52:26;;;;;;;;;;;;;;;25.69;48.46;100408.83;104386;1311;61458;-81
2022/09/11 05:54:52;;;;;;;;;;;;;;;25.70;48.50;100412.19;104350;1312;61296;-84
2022/09/11 05:57:18;;;;;;;;;;;;;;;25.71;48.43;100411.77;104381;1311;61368;-83
2022/09/11 05:59:46;;;;;;;;;;;;;;;25.71;48.53;100412.40;104415;1311;61244;-83
2022/09/11 06:02:11;;;;;;;;;;;;;;;25.72;48.40;100407.11;104371;1313;61283;-84
2022/09/11 06:04:38;;;;;;;;;;;;;;;25.73;48.43;100407.36;104411;1311;61324;-83
2022/09/11 06:07:03;;;;;;;;;;;;;;;25.73;48.36;100409.52;104345;1313;61317;-82
2022/09/11 06:09:28;;;;;;;;;;;;;;;25.74;48.35;100408.28;104496;1310;61433;-83
2022/09/11 06:11:55;;;;;;;;;;;;;;;25.75;48.48;100405.19;104482;1311;61342;-83
2022/09/11 06:14:20;;;;;;;;;;;;;;;25.76;48.49;100406.02;104372;1311;61789;-81
2022/09/11 06:16:47;;;;;;;;;;;;;;;25.77;48.42;100403.18;104493;1308;61290;-82
2022/09/11 06:19:12;;;;;;;;;;;;;;;25.78;48.28;100403.11;104472;1310;61304;-83
2022/09/11 06:21:38;;;;;;;;;;;;;;;25.79;48.41;100407.55;104483;1310;61281;-83
2022/09/11 06:24:04;;;;;;;;;;;;;;;25.79;48.39;100408.21;104391;1309;61391;-83
2022/09/11 06:26:29;;;;;;;;;;;;;;;25.80;48.47;100409.91;104459;1309;61186;-82
2022/09/11 06:28:55;;;;;;;;;;;;;;;25.81;48.28;100414.31;104486;1309;61397;-82
2022/09/11 06:31:23;;;;;;;;;;;;;;;25.82;48.46;100413.11;104470;1308;61200;-83
2022/09/11 06:33:50;;;;;;;;;;;;;;;25.83;48.48;100411.77;104303;1309;61285;-82
2022/09/11 06:36:16;;;;;;;;;;;;;;;25.85;48.43;100412.17;104508;1308;72966;-83
2022/09/11 06:38:43;;;;;;;;;;;;;;;25.86;48.45;100411.67;104267;1309;61231;-82
2022/09/11 06:41:10;;;;;;;;;;;;;;;25.87;48.56;100407.42;104410;1309;61186;-82
2022/09/11 06:43:36;;;;;;;;;;;;;;;25.88;48.28;100407.48;104446;1309;61537;-83
2022/09/11 06:46:03;;;;;;;;;;;;;;;25.90;48.43;100408.27;104443;1309;61321;-83
2022/09/11 06:48:29;;;;;;;;;;;;;;;25.91;48.34;100403.31;104319;1309;74850;-82
2022/09/11 06:50:56;;;;;;;;;;;;;;;25.91;48.43;100401.80;104374;1308;61430;-82
2022/09/11 06:53:22;;;;;;;;;;;;;;;25.92;48.34;100400.48;104416;1309;61371;-83
2022/09/11 06:55:47;;;;;;;;;;;;;;;25.93;48.62;100399.66;104379;1311;61397;-84
2022/09/11 06:58:13;;;;;;;;;;;;;;;25.94;48.35;100396.52;104534;1309;60212;-84
2022/09/11 07:00:39;;;;;;;;;;;;;;;25.94;48.45;100400.58;104382;1308;61278;-83
2022/09/11 07:03:04;;;;;;;;;;;;;;;25.95;48.23;100398.36;104598;1309;61721;-83
2022/09/11 07:05:30;;;;;;;;;;;;;;;25.96;48.45;100398.67;104545;1309;61273;-83
2022/09/11 07:07:55;;;;;;;;;;;;;;;25.96;48.41;100401.52;104490;1309;61284;-83
2022/09/11 07:10:21;;;;;;;;;;;;;;;25.96;48.42;100401.89;104461;1309;61388;-83
2022/09/11 07:12:47;;;;;;;;;;;;;;;25.97;48.44;100405.40;104413;1308;61249;-84
2022/09/11 07:15:12;;;;;;;;;;;;;;;25.97;48.31;100404.14;104488;1309;61381;-86
2022/09/11 07:17:38;;;;;;;;;;;;;;;25.98;48.43;100406.97;104441;1309;61344;-84
2022/09/11 07:20:03;;;;;;;;;;;;;;;25.98;48.31;100406.91;104477;1309;72697;-84
2022/09/11 07:22:30;;;;;;;;;;;;;;;25.99;48.09;100412.59;104581;1308;61457;-84
2022/09/11 07:24:55;;;;;;;;;;;;;;;25.98;48.19;100411.20;104571;1308;61169;-83
2022/09/11 07:27:21;;;;;;;;;;;;;;;25.99;48.21;100410.12;104380;1308;61412;-82
2022/09/11 07:29:46;;;;;;;;;;;;;;;25.99;48.27;100410.80;104586;1309;61313;-83
2022/09/11 07:32:13;;;;;;;;;;;;;;;25.99;48.41;100406.30;104613;1308;61278;-83
2022/09/11 07:34:38;;;;;;;;;;;;;;;25.99;48.31;100409.52;104593;1309;76142;-83
2022/09/11 07:37:04;;;;;;;;;;;;;;;25.99;48.15;100408.58;104595;1308;61311;-83
2022/09/11 07:39:30;;;;;;;;;;;;;;;26.00;48.12;100408.39;104409;1308;61285;-83
2022/09/11 07:41:55;;;;;;;;;;;;;;;26.00;48.36;100406.05;104466;1309;61426;-83
2022/09/11 07:44:22;;;;;;;;;;;;;;;26.00;48.19;100407.07;104463;1309;61272;-84
2022/09/11 07:46:48;;;;;;;;;;;;;;;26.00;47.98;100411.39;104615;1309;61314;-84
2022/09/11 07:49:14;;;;;;;;;;;;;;;26.01;48.42;100407.22;104497;1309;61299;-84
2022/09/11 07:51:40;;;;;;;;;;;;;;;26.00;48.28;100407.05;104483;1309;61830;-82
2022/09/11 07:54:06;;;;;;;;;;;;;;;26.01;48.03;100405.41;104439;1308;61318;-83
2022/09/11 07:56:32;;;;;;;;;;;;;;;26.01;48.35;100402.34;104361;1308;61282;-83
2022/09/11 07:58:58;;;;;;;;;;;;;;;26.01;48.22;100401.27;104472;1309;61319;-84
2022/09/11 08:01:24;;;;;;;;;;;;;;;26.01;48.18;100397.98;104520;1309;61295;-82
2022/09/11 08:03:55;;;;;;;;;;;;;;;26.01;48.18;100399.61;104490;1309;61212;-84
2022/09/11 08:06:22;;;;;;;;;;;;;;;26.01;48.23;100402.85;104433;1308;74986;-84
2022/09/11 08:08:55;;;;;;;;;;;;;;;26.01;48.16;100400.89;104589;1308;61314;-84
2022/09/11 08:11:20;;;;;;;;;;;;;;;26.01;48.06;100400.11;104445;1309;61340;-85
2022/09/11 08:13:49;;;;;;;;;;;;;;;26.01;48.23;100402.85;104574;1309;61345;-85
2022/09/11 08:16:15;;;;;;;;;;;;;;;26.01;48.04;100403.56;104564;1309;74711;-82
2022/09/11 08:18:40;;;;;;;;;;;;;;;26.01;48.23;100407.35;104498;1309;61367;-83
2022/09/11 08:21:09;;;;;;;;;;;;;;;26.01;48.02;100405.86;104444;1309;61221;-84
2022/09/11 08:23:36;;;;;;;;;;;;;;;26.01;48.15;100406.94;104637;1309;73041;-84
2022/09/11 08:26:05;;;;;;;;;;;;;;;26.01;48.14;100406.64;104374;1309;61430;-83
2022/09/11 08:28:32;;;;;;;;;;;;;;;26.01;48.32;100403.52;104413;1309;61249;-83
2022/09/11 08:30:58;;;;;;;;;;;;;;;26.02;48.12;100401.17;104396;1309;61358;-83
2022/09/11 08:33:23;;;;;;;;;;;;;;;26.01;48.30;100397.21;104181;1310;61301;-83
2022/09/11 08:35:49;;;;;;;;;;;;;;;26.01;48.03;100393.59;104220;1309;61309;-83
2022/09/11 08:38:15;;;;;;;;;;;;;;;26.02;48.19;100393.22;104245;1309;61273;-83
2022/09/11 08:40:40;;;;;;;;;;;;;;;26.02;48.05;100390.86;104292;1309;61389;-83
2022/09/11 08:43:08;;;;;;;;;;;;;;;26.02;48.12;100383.27;104452;1309;61236;-83
2022/09/11 08:45:34;;;;;;;;;;;;;;;26.02;48.14;100389.02;104253;1309;75326;-83
2022/09/11 08:48:00;;;;;;;;;;;;;;;26.02;48.03;100389.71;104386;1308;61459;-83
2022/09/11 08:50:31;;;;;;;;;;;;;;;26.03;48.20;100386.30;104407;1309;63014;-83
2022/09/11 08:52:57;;;;;;;;;;;;;;;26.03;48.06;100387.73;104413;1309;61456;-83
2022/09/11 08:55:25;;;;;;;;;;;;;;;26.03;48.19;100389.70;104233;1309;61429;-83
2022/09/11 08:58:03;;;;;;;;;;;;;;;26.02;48.19;100380.87;104429;1307;74737;-82
2022/09/11 09:00:36;;;;;;;;;;;;;;;26.02;48.14;100378.01;104355;1309;61524;-83
2022/09/11 09:03:20;;;;;;;;;;;;;;;26.03;48.17;100378.36;104501;1309;61440;-83
2022/09/11 09:06:01;;;;;;;;;;;;;;;26.03;48.05;100372.04;104522;1309;72621;-84
2022/09/11 09:08:46;;;;;;;;;;;;;;;26.03;47.91;100366.83;104547;1309;75873;-83
2022/09/11 09:11:27;;;;;;;;;;;;;;;26.03;48.11;100367.37;104440;1309;61194;-83
2022/09/11 09:14:05;;;;;;;;;;;;;;;26.02;48.12;100367.04;104514;1312;61205;-83
2022/09/11 09:16:38;;;;;;;;;;;;;;;26.02;48.17;100368.17;104467;1309;73660;-83
2022/09/11 09:19:26;;;;;;;;;;;;;;;26.01;48.05;100367.11;104605;1306;75683;-83
2022/09/11 09:22:03;;;;;;;;;;;;;;;26.01;47.97;100361.58;104623;1308;61316;-82
2022/09/11 09:24:29;;;;;;;;;;;;;;;26.01;47.87;100365.90;104427;1309;61561;-83
2022/09/11 09:26:55;;;;;;;;;;;;;;;26.00;48.06;100363.93;104475;1309;73187;-83
2022/09/11 09:29:22;;;;;;;;;;;;;;;26.00;48.00;100361.50;104612;1308;61379;-83
2022/09/11 09:31:50;;;;;;;;;;;;;;;26.00;47.85;100362.04;104482;1309;61298;-85
2022/09/11 09:34:20;;;;;;;;;;;;;;;25.99;48.01;100361.38;104510;1308;61655;-83
2022/09/11 09:36:52;;;;;;;;;;;;;;;25.99;47.81;100361.39;104607;1309;73801;-84
2022/09/11 09:39:17;;;;;;;;;;;;;;;25.99;47.91;100361.35;104579;1309;74989;-83
2022/09/11 09:41:56;;;;;;;;;;;;;;;25.99;47.96;100362.50;104604;1309;61251;-80
2022/09/11 09:44:21;;;;;;;;;;;;;;;25.99;47.99;100354.38;104511;1312;61300;-83
2022/09/11 09:46:49;;;;;;;;;;;;;;;25.99;48.01;100354.91;104294;1312;72769;-83
2022/09/11 09:49:21;;;;;;;;;;;;;;;25.98;48.09;100359.65;104471;1309;75759;-82
2022/09/11 09:51:47;;;;;;;;;;;;;;;25.98;47.90;100354.07;104588;1308;61161;-82
2022/09/11 09:54:14;;;;;;;;;;;;;;;25.98;47.82;100348.53;104480;1309;61360;-82
2022/09/11 09:56:42;;;;;;;;;;;;;;;25.98;48.03;100347.81;104511;1309;73801;-83
2022/09/11 09:59:10;;;;;;;;;;;;;;;25.97;47.90;100347.13;104462;1309;75792;-83
2022/09/11 10:01:38;;;;;;;;;;;;;;;25.97;47.90;100346.05;103256;1312;1685671;-84
2022/09/11 10:04:09;;;;;;;;;;;;;;;25.97;47.74;100343.35;104293;1309;62151;-83
2022/09/11 10:06:35;;;;;;;;;;;;;;;25.98;47.88;100345.31;104366;1309;72214;-83
2022/09/11 10:09:00;;;;;;;;;;;;;;;25.98;47.75;100344.95;104375;1309;61282;-83
2022/09/11 10:11:27;;;;;;;;;;;;;;;25.98;47.86;100344.73;104380;1309;61291;-81
2022/09/11 10:13:52;;;;;;;;;;;;;;;25.98;47.72;100341.50;104309;1309;61340;-82
2022/09/11 10:16:18;;;;;;;;;;;;;;;25.98;47.92;100344.20;104457;1309;61747;-83
2022/09/11 10:18:45;;;;;;;;;;;;;;;25.98;47.82;100350.31;104368;1308;61166;-83
2022/09/11 10:21:11;;;;;;;;;;;;;;;25.98;47.85;100349.20;104331;1311;61419;-83
2022/09/11 10:23:49;;;;;;;;;;;;;;;25.98;47.87;100339.12;104294;1311;61307;-83
2022/09/11 10:26:15;;;;;;;;;;;;;;;25.99;47.76;100339.25;104319;1309;61384;-83
2022/09/11 10:28:41;;;;;;;;;;;;;;;25.98;47.74;100331.40;104460;1309;72775;-85
2022/09/11 10:31:07;;;;;;;;;;;;;;;25.98;47.87;100331.23;104416;1309;61292;-83
2022/09/11 10:33:34;;;;;;;;;;;;;;;25.98;47.96;100332.61;104467;1309;61371;-83
2022/09/11 10:36:00;;;;;;;;;;;;;;;25.98;47.62;100333.72;104464;1309;61532;-83
2022/09/11 10:38:26;;;;;;;;;;;;;;;25.98;47.53;100331.41;104472;1309;61436;-83
2022/09/11 10:41:08;;;;;;;;;;;;;;;25.97;47.50;100324.41;104575;1309;61378;-83
2022/09/11 10:43:54;;;;;;;;;;;;;;;25.97;47.65;100319.20;104381;1309;61356;-83
2022/09/11 10:46:27;;;;;;;;;;;;;;;25.97;47.59;100322.29;104291;1308;61181;-82
2022/09/11 10:48:56;;;;;;;;;;;;;;;25.97;47.63;100323.20;104554;1309;74007;-83
2022/09/11 10:51:22;;;;;;;;;;;;;;;25.97;47.51;100316.88;104506;1308;74838;-82
2022/09/11 10:53:53;;;;;;;;;;;;;;;25.97;47.47;100313.12;104448;1308;61298;-84
2022/09/11 10:56:18;;;;;;;;;;;;;;;25.97;47.55;100312.04;104555;1309;61570;-84
2022/09/11 10:58:44;;;;;;;;;;;;;;;25.97;47.69;100308.63;104476;1309;61267;-83
2022/09/11 11:01:14;;;;;;;;;;;;;;;25.97;47.52;100309.73;104489;1309;75703;-83
2022/09/11 11:03:39;;;;;;;;;;;;;;;25.96;47.52;100309.95;104521;1309;61435;-83
2022/09/11 11:06:08;;;;;;;;;;;;;;;25.96;47.52;100306.15;104322;1309;61269;-83
2022/09/11 11:08:39;;;;;;;;;;;;;;;25.96;47.56;100302.20;104434;1308;61223;-85
2022/09/11 11:11:27;;;;;;;;;;;;;;;25.96;47.48;100293.02;104369;1308;74810;-82
2022/09/11 11:14:20;;;;;;;;;;;;;;;25.96;47.44;100293.40;104271;1308;61179;-83
2022/09/11 11:16:48;;;;;;;;;;;;;;;25.96;47.63;100283.27;104352;1309;61019;-83
2022/09/11 11:19:19;;;;;;;;;;;;;;;25.96;47.62;100279.34;104424;1308;74425;-84
2022/09/11 11:21:49;;;;;;;;;;;;;;;25.96;47.41;100277.66;104474;1308;74892;-83
2022/09/11 11:24:32;;;;;;;;;;;;;;;25.96;47.62;100280.17;104488;1308;61272;-82
2022/09/11 11:26:58;;;;;;;;;;;;;;;25.96;47.42;100273.30;104332;1308;61253;-82
2022/09/11 11:29:23;;;;;;;;;;;;;;;25.96;47.47;100266.65;104247;1308;61384;-83
2022/09/11 11:32:02;;;;;;;;;;;;;;;25.97;47.60;100267.36;104215;1309;61344;-83
2022/09/11 11:34:49;;;;;;;;;;;;;;;25.97;47.64;100263.54;104303;1309;61756;-83
2022/09/11 11:37:16;;;;;;;;;;;;;;;25.97;47.55;100266.95;104332;1308;61256;-82
2022/09/11 11:39:51;;;;;;;;;;;;;;;25.97;47.70;100258.15;104348;1309;74846;-82
2022/09/11 11:42:22;;;;;;;;;;;;;;;25.97;47.40;100262.45;104557;1307;75750;-82
2022/09/11 11:44:50;;;;;;;;;;;;;;;25.97;47.44;100265.13;104473;1308;61376;-83
2022/09/11 11:47:15;;;;;;;;;;;;;;;25.97;47.63;100261.91;104503;1309;62066;-84
2022/09/11 11:49:45;;;;;;;;;;;;;;;25.96;47.37;100258.00;104379;1308;61454;-83
2022/09/11 11:52:11;;;;;;;;;;;;;;;25.97;47.30;100250.05;104463;1309;75731;-86
2022/09/11 11:54:40;;;;;;;;;;;;;;;25.96;47.45;100246.66;104519;1308;61195;-83
2022/09/11 11:57:08;;;;;;;;;;;;;;;25.96;47.31;100248.69;104516;1309;61836;-83
2022/09/11 11:59:35;;;;;;;;;;;;;;;25.96;47.35;100243.62;104595;1309;72884;-82
2022/09/11 12:02:08;;;;;;;;;;;;;;;25.96;47.20;100238.03;104626;1309;75713;-83
2022/09/11 12:04:33;;;;;;;;;;;;;;;25.95;47.35;100237.36;104513;1308;61322;-82
2022/09/11 12:06:59;;;;;;;;;;;;;;;25.95;47.34;100238.66;104488;1309;61305;-83
2022/09/11 12:09:26;;;;;;;;;;;;;;;25.95;47.36;100236.48;104481;1309;61317;-84
2022/09/11 12:11:52;;;;;;;;;;;;;;;25.95;47.59;100235.96;104502;1306;61288;-84
2022/09/11 12:14:24;;;;;;;;;;;;;;;25.94;47.48;100229.84;104473;1309;61294;-83
2022/09/11 12:16:51;;;;;;;;;;;;;;;25.94;47.34;100232.58;104594;1309;61465;-82
2022/09/11 12:19:19;;;;;;;;;;;;;;;25.94;47.56;100230.08;104492;1309;72689;-82
2022/09/11 12:21:52;;;;;;;;;;;;;;;25.94;47.40;100230.42;104499;1309;74702;-83
2022/09/11 12:24:40;;;;;;;;;;;;;;;25.94;47.21;100227.34;104445;1308;61298;-82
2022/09/11 12:27:25;;;;;;;;;;;;;;;25.94;47.36;100223.00;104499;1308;61367;-84
2022/09/11 12:29:55;;;;;;;;;;;;;;;25.94;47.35;100219.23;104590;1309;72672;-83
2022/09/11 12:32:27;;;;;;;;;;;;;;;25.94;47.21;100218.65;104430;1309;77072;-83